Time;durP1;ratioP1;P1;durP2;ratioP2;P2;SDS_P1;SDS_P2;PMS_P1;PMS_P2;Temp;Humidity;BMP_temperature;BMP_pressure;BME280_temperature;BME280_humidity;BME280_pressure;Samples;Min_cycle;Max_cycle;Signal;HPM_P1;HPM_P2
2022/03/18 00:07:42;;;;;;;36.40;11.52;;;2.70;99.90;;;;;;20907637;28;20369;-55
2022/03/18 00:17:44;;;;;;;33.17;13.13;;;2.50;99.90;;;;;;20988974;28;20136;-55
2022/03/18 00:27:48;;;;;;;26.25;9.93;;;2.50;99.90;;;;;;20971704;28;20028;-54
2022/03/18 00:37:50;;;;;;;38.63;13.65;;;2.60;99.90;;;;;;20972067;28;20048;-54
2022/03/18 00:58:14;;;;;;;27.27;8.33;;;3.30;99.90;;;;;;20970585;28;20070;-54
2022/03/18 01:08:17;;;;;;;29.25;12.65;;;3.50;99.90;;;;;;20967935;28;20033;-54
2022/03/18 01:18:19;;;;;;;35.33;12.95;;;3.60;99.90;;;;;;20918563;28;20486;-54
2022/03/18 01:28:23;;;;;;;34.10;11.00;;;3.60;99.90;;;;;;20884521;28;20037;-55
2022/03/18 01:38:25;;;;;;;35.65;11.05;;;3.50;99.90;;;;;;20916816;28;20040;-52
2022/03/18 01:48:28;;;;;;;36.80;12.75;;;3.50;99.90;;;;;;20883390;28;20036;-54
2022/03/18 01:58:31;;;;;;;33.78;12.65;;;3.50;99.90;;;;;;20899403;28;20033;-55
2022/03/18 02:08:36;;;;;;;32.42;11.63;;;3.50;99.90;;;;;;20881970;28;20099;-56
2022/03/18 02:18:39;;;;;;;27.77;12.30;;;3.70;99.90;;;;;;20896176;28;20082;-55
2022/03/18 02:28:42;;;;;;;34.97;13.25;;;3.70;99.90;;;;;;20913272;28;20099;-54
2022/03/18 02:38:45;;;;;;;32.83;12.65;;;3.80;99.90;;;;;;20912543;28;20458;-55
2022/03/18 02:48:48;;;;;;;34.42;12.27;;;3.80;99.90;;;;;;20879081;28;20040;-55
2022/03/18 02:58:51;;;;;;;32.58;11.55;;;3.90;99.90;;;;;;20912290;28;20040;-55
2022/03/18 03:08:53;;;;;;;20.17;6.35;;;3.90;99.90;;;;;;20881530;28;20041;-56
2022/03/18 03:18:56;;;;;;;33.22;10.90;;;4.10;99.90;;;;;;20960620;28;20090;-56
2022/03/18 03:29:00;;;;;;;36.50;14.15;;;4.20;99.90;;;;;;20972096;28;20036;-54
2022/03/18 03:39:03;;;;;;;35.28;12.60;;;4.20;99.90;;;;;;20975295;28;20053;-56
2022/03/18 03:49:05;;;;;;;40.50;13.52;;;4.10;99.90;;;;;;20976140;28;20045;-53
2022/03/18 03:59:08;;;;;;;26.00;11.80;;;4.10;99.90;;;;;;20973982;28;20032;-55
2022/03/18 04:09:10;;;;;;;31.65;12.18;;;4.00;99.90;;;;;;20973285;28;20097;-55
2022/03/18 04:19:14;;;;;;;32.63;12.27;;;3.90;99.90;;;;;;20972719;28;20032;-55
2022/03/18 04:29:17;;;;;;;28.20;13.18;;;3.90;99.90;;;;;;20971651;28;20543;-53
2022/03/18 04:39:20;;;;;;;26.65;11.65;;;3.90;99.90;;;;;;20969439;28;20060;-53
2022/03/18 04:49:22;;;;;;;29.60;12.45;;;4.00;99.90;;;;;;20970942;28;20089;-58
2022/03/18 04:59:24;;;;;;;33.38;16.40;;;4.00;99.90;;;;;;20969500;28;20033;-53
2022/03/18 05:09:27;;;;;;;31.88;14.63;;;3.70;99.90;;;;;;20961999;28;20106;-65
2022/03/18 05:19:30;;;;;;;27.08;13.38;;;3.40;99.90;;;;;;20885129;28;20490;-65
2022/03/18 05:29:34;;;;;;;31.40;14.63;;;3.20;99.90;;;;;;20868226;28;20091;-55
2022/03/18 05:39:37;;;;;;;40.38;15.65;;;3.20;99.90;;;;;;20883518;28;20563;-55
2022/03/18 05:49:40;;;;;;;27.35;10.70;;;3.30;99.90;;;;;;20899230;28;20037;-54
2022/03/18 05:59:42;;;;;;;26.50;11.95;;;3.90;99.90;;;;;;20882755;28;20040;-54
2022/03/18 06:20:06;;;;;;;34.33;14.25;;;4.60;99.90;;;;;;20962557;28;20036;-54
2022/03/18 06:30:11;;;;;;;24.60;11.98;;;5.10;99.90;;;;;;20962683;28;20024;-55
2022/03/18 06:40:13;;;;;;;31.73;11.10;;;5.40;99.90;;;;;;20962388;28;20071;-54
2022/03/18 06:50:16;;;;;;;29.65;13.15;;;5.60;99.90;;;;;;20961936;28;20393;-55
2022/03/18 07:00:19;;;;;;;33.05;13.65;;;5.70;99.90;;;;;;20951392;28;20094;-56
2022/03/18 07:10:22;;;;;;;38.13;12.85;;;5.70;99.90;;;;;;20963875;28;20040;-55
2022/03/18 07:20:28;;;;;;;24.23;11.07;;;5.90;99.90;;;;;;20895153;28;20037;-56
2022/03/18 07:30:31;;;;;;;28.70;13.55;;;6.40;99.90;;;;;;20893852;28;20570;-56
2022/03/18 07:40:33;;;;;;;28.75;13.20;;;6.90;99.90;;;;;;20910753;28;20060;-56
2022/03/18 07:50:39;;;;;;;27.33;13.30;;;7.00;99.90;;;;;;20892144;28;20045;-66
2022/03/18 08:00:43;;;;;;;23.33;13.07;;;7.20;99.90;;;;;;20891375;28;20033;-57
2022/03/18 08:10:45;;;;;;;25.88;13.20;;;7.50;99.90;;;;;;20908014;28;20125;-56
2022/03/18 08:20:52;;;;;;;24.20;12.70;;;7.80;99.90;;;;;;20972360;28;20078;-66
2022/03/18 08:30:55;;;;;;;23.42;12.15;;;8.10;99.90;;;;;;20971945;28;20032;-57
2022/03/18 08:41:01;;;;;;;25.45;14.15;;;8.60;99.90;;;;;;20971270;28;20703;-57
2022/03/18 08:51:03;;;;;;;26.80;13.77;;;9.00;99.90;;;;;;20970385;28;20037;-57
2022/03/18 09:01:05;;;;;;;23.92;12.40;;;9.70;99.90;;;;;;20969712;28;20040;-57
2022/03/18 09:11:08;;;;;;;24.77;13.30;;;10.10;99.90;;;;;;20948194;28;20043;-57
2022/03/18 09:21:10;;;;;;;25.33;13.23;;;10.30;99.90;;;;;;20884491;28;20033;-57
2022/03/18 09:31:14;;;;;;;27.10;12.48;;;10.50;99.90;;;;;;20884316;28;20478;-58
2022/03/18 09:41:17;;;;;;;30.52;14.48;;;10.80;99.90;;;;;;20508972;28;20051;-57
2022/03/18 09:51:20;;;;;;;26.73;15.30;;;10.90;99.90;;;;;;20466925;28;20392;-57
2022/03/18 10:01:22;;;;;;;30.05;15.88;;;11.10;99.90;;;;;;20466174;28;20397;-57
2022/03/18 10:11:33;;;;;;;41.78;19.73;;;11.30;99.90;;;;;;20487849;28;20039;-65
2022/03/18 10:21:53;;;;;;;33.05;18.63;;;10.90;99.90;;;;;;20529321;28;20035;-57
2022/03/18 10:32:00;;;;;;;39.08;19.83;;;11.10;99.90;;;;;;20584150;23;20050;-65
2022/03/18 10:42:14;;;;;;;29.38;15.57;;;11.20;99.90;;;;;;20886996;28;20209;-57
2022/03/18 10:52:16;;;;;;;26.73;14.95;;;11.20;99.90;;;;;;20870167;28;20502;-58
2022/03/18 11:02:20;;;;;;;24.85;14.43;;;11.30;99.90;;;;;;20869358;28;20049;-57
2022/03/18 11:12:23;;;;;;;26.35;13.93;;;10.80;99.90;;;;;;20868894;28;20049;-64
2022/03/18 11:22:26;;;;;;;26.90;13.60;;;11.20;99.90;;;;;;20755700;28;20088;-65
2022/03/18 11:32:32;;;;;;;23.70;12.13;;;12.10;99.90;;;;;;20881064;28;20455;-65
2022/03/18 11:42:35;;;;;;;21.00;11.57;;;12.00;98.60;;;;;;20977166;28;20070;-57
2022/03/18 11:52:55;;;;;;;20.45;11.88;;;11.30;98.00;;;;;;20991901;28;20037;-57
2022/03/18 12:03:00;;;;;;;20.20;10.93;;;11.30;98.40;;;;;;20990954;28;20093;-57
2022/03/18 12:13:03;;;;;;;22.63;11.35;;;11.70;97.50;;;;;;21007201;28;20109;-57
2022/03/18 12:23:08;;;;;;;23.40;10.45;;;11.80;96.10;;;;;;21006237;28;20089;-64
2022/03/18 12:33:11;;;;;;;17.08;9.75;;;11.80;96.50;;;;;;20789332;28;20155;-65
2022/03/18 12:43:18;;;;;;;17.05;9.60;;;11.90;95.60;;;;;;20716705;28;20483;-57
2022/03/18 12:53:23;;;;;;;16.63;9.30;;;11.80;94.60;;;;;;20731751;28;20034;-57
2022/03/18 13:03:34;;;;;;;17.45;10.00;;;11.60;94.90;;;;;;20713783;28;20064;-66
2022/03/18 13:13:47;;;;;;;15.75;10.20;;;11.30;94.10;;;;;;20782678;28;20111;-60
2022/03/18 13:23:52;;;;;;;17.70;9.40;;;11.10;93.90;;;;;;20687426;28;20078;-56
2022/03/18 13:33:55;;;;;;;14.05;8.32;;;10.90;93.40;;;;;;20928310;28;20056;-56
2022/03/18 13:43:58;;;;;;;14.45;8.00;;;10.80;94.10;;;;;;20970936;28;20141;-57
2022/03/18 13:54:12;;;;;;;17.50;8.38;;;10.80;93.70;;;;;;20968376;28;20041;-66
2022/03/18 14:04:14;;;;;;;15.65;8.68;;;10.50;93.20;;;;;;20971277;28;20089;-67
2022/03/18 14:14:37;;;;;;;15.60;7.80;;;9.70;93.90;;;;;;20959575;28;20040;-69
2022/03/18 14:24:40;;;;;;;14.20;8.55;;;9.20;93.90;;;;;;20976744;28;20090;-67
2022/03/18 14:34:45;;;;;;;15.50;8.63;;;8.90;94.50;;;;;;20974558;28;20052;-64
2022/03/18 14:44:48;;;;;;;16.98;8.80;;;8.10;95.00;;;;;;20972148;28;20071;-66
2022/03/18 15:05:11;;;;;;;;;;;7.40;96.60;;;;;;20987927;28;20131;-58
2022/03/18 15:15:14;;;;;;;17.33;9.02;;;7.30;96.90;;;;;;20982083;28;19909;-64
2022/03/18 15:25:20;;;;;;;16.80;9.07;;;7.10;97.00;;;;;;20974888;28;20194;-64
2022/03/18 15:35:24;;;;;;;18.27;9.70;;;6.80;97.50;;;;;;20592439;28;20495;-64
2022/03/18 15:45:27;;;;;;;17.08;9.68;;;6.60;98.30;;;;;;20503953;28;20118;-64
2022/03/18 15:55:30;;;;;;;14.98;8.93;;;6.50;98.70;;;;;;20503287;28;20043;-64
2022/03/18 16:05:35;;;;;;;15.93;9.27;;;6.40;98.50;;;;;;20482538;29;20070;-64
2022/03/18 16:15:39;;;;;;;16.85;9.48;;;6.20;99.20;;;;;;20548566;28;20478;-63
2022/03/18 16:25:42;;;;;;;17.67;9.82;;;5.90;99.90;;;;;;20484117;28;20128;-62
2022/03/18 16:35:46;;;;;;;16.88;10.30;;;5.40;99.90;;;;;;20901491;28;20139;-61
2022/03/18 16:56:10;;;;;;;18.20;11.10;;;4.20;99.90;;;;;;20970539;28;20068;-62
2022/03/18 17:06:13;;;;;;;18.85;11.27;;;3.70;99.90;;;;;;20990401;28;20145;-62
2022/03/18 17:16:16;;;;;;;19.98;11.80;;;3.20;99.90;;;;;;20965000;28;20086;-58
2022/03/18 17:26:18;;;;;;;22.98;11.60;;;2.70;99.90;;;;;;20969777;28;20072;-63
2022/03/18 17:36:23;;;;;;;20.30;12.30;;;2.10;99.90;;;;;;20595786;28;20078;-70
2022/03/18 17:46:28;;;;;;;19.63;10.90;;;1.60;99.90;;;;;;20536699;28;20505;-62
2022/03/18 17:56:37;;;;;;;25.70;10.95;;;1.40;99.90;;;;;;20582841;28;20070;-63
2022/03/18 18:06:40;;;;;;;19.70;8.65;;;1.30;99.90;;;;;;20558044;28;20063;-69
2022/03/18 18:16:43;;;;;;;19.30;9.45;;;1.10;99.90;;;;;;20440872;28;20448;-66
2022/03/18 18:26:45;;;;;;;17.33;8.20;;;1.00;99.90;;;;;;20432314;28;20028;-72
2022/03/18 18:36:51;;;;;;;25.13;10.68;;;0.80;99.90;;;;;;20957306;28;20057;-63
2022/03/18 18:46:55;;;;;;;16.48;8.95;;;0.70;99.90;;;;;;20922370;28;20036;-68
2022/03/18 18:56:58;;;;;;;20.75;10.45;;;0.80;99.90;;;;;;20942798;28;20036;-57
2022/03/18 19:07:01;;;;;;;28.48;12.63;;;1.00;99.90;;;;;;20971055;28;20028;-58
2022/03/18 19:17:04;;;;;;;21.83;11.63;;;1.00;99.90;;;;;;20971701;28;20081;-62
2022/03/18 19:27:06;;;;;;;22.17;12.82;;;0.90;99.90;;;;;;20973955;28;20032;-61
2022/03/18 19:37:09;;;;;;;29.88;13.27;;;0.50;99.90;;;;;;20961713;28;20072;-65
2022/03/18 19:47:16;;;;;;;22.38;11.30;;;0.60;99.90;;;;;;20933656;28;20044;-67
2022/03/18 20:07:40;;;;;;;;;;;0.70;99.90;;;;;;20979408;28;20025;-63
2022/03/18 20:17:42;;;;;;;30.55;13.50;;;0.50;99.90;;;;;;20968358;28;19927;-66
2022/03/18 20:27:47;;;;;;;18.88;9.32;;;0.40;99.90;;;;;;20980669;28;20122;-62
2022/03/18 20:37:54;;;;;;;16.75;8.77;;;0.60;99.90;;;;;;20975281;28;20483;-54
2022/03/18 20:47:58;;;;;;;17.75;9.90;;;0.50;99.90;;;;;;20963497;28;20032;-50
2022/03/18 20:58:07;;;;;;;25.23;11.65;;;0.70;99.90;;;;;;20982619;28;20044;-52
2022/03/18 21:08:10;;;;;;;17.83;8.88;;;0.70;99.90;;;;;;20985980;28;20645;-52
2022/03/18 21:18:13;;;;;;;20.85;11.18;;;0.50;99.90;;;;;;20986732;28;20040;-52
2022/03/18 21:38:38;;;;;;;21.55;11.18;;;0.30;99.90;;;;;;20986298;28;20546;-51
2022/03/18 21:48:42;;;;;;;22.60;11.68;;;0.00;99.90;;;;;;21002057;28;20063;-52
2022/03/18 21:58:46;;;;;;;19.23;9.90;;;-0.30;99.90;;;;;;20984912;28;20070;-51
2022/03/18 22:08:48;;;;;;;21.15;9.85;;;-0.40;99.90;;;;;;21000643;28;20041;-50
2022/03/18 22:18:51;;;;;;;22.98;11.65;;;-0.60;99.90;;;;;;20999727;28;20040;-52
2022/03/18 22:28:54;;;;;;;22.35;11.00;;;-0.60;99.90;;;;;;20913173;28;20058;-51
2022/03/18 22:38:57;;;;;;;17.50;9.05;;;-0.70;99.90;;;;;;20711180;28;20042;-47
2022/03/18 22:49:00;;;;;;;22.95;11.05;;;-0.70;99.90;;;;;;20710264;28;20030;-47
2022/03/18 22:59:03;;;;;;;15.75;8.40;;;-0.70;99.90;;;;;;20709692;28;20396;-52
2022/03/18 23:09:06;;;;;;;13.15;6.70;;;-0.80;99.90;;;;;;20727430;28;20100;-49
2022/03/18 23:19:09;;;;;;;12.60;6.18;;;-0.20;99.90;;;;;;20692501;28;20042;-48
2022/03/18 23:29:11;;;;;;;11.18;5.57;;;0.00;99.90;;;;;;20709466;28;20111;-48
2022/03/18 23:39:14;;;;;;;12.90;5.88;;;0.00;99.90;;;;;;20726295;28;20471;-48
2022/03/18 23:49:16;;;;;;;9.98;5.50;;;0.00;99.90;;;;;;20721779;28;20038;-46
2022/03/18 23:59:19;;;;;;;13.18;5.93;;;0.00;99.90;;;;;;20721479;28;20042;-53
